Main page
METAR-TAF:

METAR-TAF

Airports :

Anoka County–Blaine Airport

Minneapolis / Blaine, Minnesota, United States

latitude: 45-09N, longitude: 093-13W, elevation: 912 ft

Current weather observation

The report was made 52 minutes ago, at 20:45 UTC
Wind 12 mph from the Southeast with gusts up to 21 mph
Temperature 57°F
Humidity 41%
Pressure 29.94 in. Hg
Visibility: 10 miles
Scattered clouds at a height of 12000 ft
Scattered clouds at a height of 20000 ft

METAR: KANE 012045Z 13010G18KT 10SM SCT120 SCT200 14/01 A2994

Time: 16:37 (21:37 UTC)


TAF: missing

Weather observations and forecasts of more than 4000 airports (METAR and TAF reports).

The available stations are represented by yellow and red dots on the map.

Hover mouse over dot to see the name of the station.

Then click to see weather observations and forecasts.

To change the map : click on the green buttons with a black cross to zoom in, on the green button with a dash to zoom out, or on the green arrows for adjacent maps.


METAR-TAF: